createdAt,value
2017-11-20T12:00:36.761Z,7.44
2017-11-20T12:01:42.511Z,7.51
2017-11-20T12:02:48.314Z,7.59
2017-11-20T12:03:53.452Z,7.73
2017-11-20T12:04:58.858Z,7.90
2017-11-20T12:06:04.068Z,7.99
2017-11-20T12:07:09.835Z,8.03
2017-11-20T12:08:14.970Z,8.10
2017-11-20T12:09:20.331Z,8.27
2017-11-20T12:10:25.414Z,8.21
2017-11-20T12:11:30.566Z,8.22
2017-11-20T12:12:36.018Z,8.20
2017-11-20T12:13:41.504Z,8.33
2017-11-20T12:14:46.953Z,8.31
2017-11-20T12:15:52.422Z,8.37
2017-11-20T12:17:01.982Z,8.45
2017-11-20T12:18:07.703Z,8.28
2017-11-20T12:19:13.108Z,8.30
2017-11-20T12:20:18.585Z,8.21
2017-11-20T12:21:23.634Z,8.12
2017-11-20T12:22:29.967Z,8.14
2017-11-20T12:23:35.770Z,8.16
2017-11-20T12:24:41.177Z,8.17
2017-11-20T12:25:46.446Z,8.20
2017-11-20T12:26:51.520Z,8.24
2017-11-20T12:27:57.275Z,8.23
2017-11-20T12:29:02.801Z,8.18
2017-11-20T12:30:08.234Z,8.23
2017-11-20T12:31:13.282Z,8.27
2017-11-20T12:32:18.347Z,8.33
2017-11-20T12:33:24.192Z,8.45
2017-11-20T12:34:29.302Z,8.54
2017-11-20T12:35:34.684Z,8.70
2017-11-20T12:36:39.517Z,8.66
2017-11-20T12:37:44.757Z,8.57
2017-11-20T12:38:50.497Z,8.53
2017-11-20T12:39:55.892Z,8.43
2017-11-20T12:41:01.975Z,8.56
2017-11-20T12:42:07.614Z,8.39
2017-11-20T12:43:15.079Z,8.41
2017-11-20T12:44:20.685Z,8.58
2017-11-20T12:45:27.438Z,8.55
2017-11-20T12:46:32.555Z,8.41
2017-11-20T12:47:37.610Z,8.37
2017-11-20T12:48:44.318Z,8.34
2017-11-20T12:49:49.626Z,8.32
2017-11-20T12:50:54.737Z,8.48
2017-11-20T12:52:01.008Z,8.56
2017-11-20T12:53:06.419Z,8.73
2017-11-20T12:54:12.310Z,8.59
2017-11-20T12:55:17.377Z,8.56
2017-11-20T12:56:23.632Z,8.52
2017-11-20T12:57:29.805Z,8.46
2017-11-20T12:58:36.171Z,8.60
2017-11-20T12:59:42.728Z,8.67
2017-11-20T13:00:48.216Z,8.66
2017-11-20T13:01:53.777Z,8.59
2017-11-20T13:02:58.640Z,8.48
2017-11-20T13:04:04.783Z,8.56
2017-11-20T13:05:10.004Z,8.51
2017-11-20T13:06:16.025Z,8.45
2017-11-20T13:07:21.996Z,8.27
2017-11-20T13:08:28.254Z,8.19
2017-11-20T13:09:33.754Z,8.21
2017-11-20T13:10:39.484Z,8.30
2017-11-20T13:11:46.193Z,8.36
2017-11-20T13:12:51.827Z,8.34
2017-11-20T13:13:57.371Z,8.42
2017-11-20T13:15:03.420Z,8.35
2017-11-20T13:16:09.153Z,8.46
2017-11-20T13:17:14.636Z,8.40
2017-11-20T13:18:20.491Z,8.39
2017-11-20T13:19:25.387Z,8.47
2017-11-20T13:20:30.502Z,8.44
2017-11-20T13:21:35.578Z,8.56
2017-11-20T13:22:41.426Z,8.62
2017-11-20T13:23:47.245Z,8.71
2017-11-20T13:24:52.314Z,8.63
2017-11-20T13:25:57.605Z,8.68
2017-11-20T13:27:02.794Z,8.70
2017-11-20T13:28:07.856Z,8.71
2017-11-20T13:29:12.936Z,8.51
2017-11-20T13:30:18.014Z,8.42
2017-11-20T13:31:23.052Z,8.38
2017-11-20T13:32:28.974Z,8.45
2017-11-20T13:33:34.062Z,8.46
2017-11-20T13:34:39.350Z,8.66
2017-11-20T13:35:46.182Z,8.62
2017-11-20T13:36:51.515Z,8.51
2017-11-20T13:37:56.555Z,8.42
2017-11-20T13:39:01.623Z,8.42
2017-11-20T13:40:07.435Z,8.49
2017-11-20T13:41:12.737Z,8.60
2017-11-20T13:42:17.825Z,8.61
2017-11-20T13:43:22.962Z,8.64
2017-11-20T13:44:28.032Z,8.61
2017-11-20T13:45:33.090Z,8.56
2017-11-20T13:46:38.910Z,8.49
2017-11-20T13:47:43.741Z,8.38
2017-11-20T13:48:49.562Z,8.46
2017-11-20T13:49:54.668Z,8.31
2017-11-20T13:50:59.476Z,8.19
2017-11-20T13:52:04.571Z,8.26
2017-11-20T13:53:10.445Z,8.44
2017-11-20T13:54:15.474Z,8.37
2017-11-20T13:55:20.553Z,8.26
2017-11-20T13:56:26.368Z,8.35
2017-11-20T13:57:31.404Z,8.30
2017-11-20T13:58:37.130Z,8.23
2017-11-20T13:59:42.167Z,8.31
2017-11-20T14:00:47.233Z,8.27
2017-11-20T14:01:52.396Z,8.32
2017-11-20T14:02:57.507Z,8.40
2017-11-20T14:04:02.303Z,8.31
2017-11-20T14:05:08.212Z,8.22
2017-11-20T14:06:30.653Z,8.14
2017-11-20T14:07:36.120Z,8.06
2017-11-20T14:08:41.166Z,8.01
2017-11-20T14:09:46.571Z,8.02
2017-11-20T14:10:51.611Z,7.98
2017-11-20T14:11:56.718Z,8.05
2017-11-20T14:13:02.707Z,7.95
2017-11-20T14:14:07.752Z,7.94
2017-11-20T14:15:13.002Z,7.91
2017-11-20T14:16:18.822Z,7.99
2017-11-20T14:17:23.731Z,7.85
2017-11-20T14:18:29.000Z,7.68
2017-11-20T14:19:34.375Z,7.76
2017-11-20T14:20:39.789Z,7.75
2017-11-20T14:21:44.853Z,7.66
2017-11-20T14:22:50.251Z,7.59
2017-11-20T14:23:55.303Z,7.60
2017-11-20T14:25:00.683Z,7.68
2017-11-20T14:26:06.499Z,7.69
2017-11-20T14:27:11.885Z,7.72
2017-11-20T14:28:17.106Z,7.73
2017-11-20T14:29:23.014Z,7.70
2017-11-20T14:30:28.401Z,7.75
2017-11-20T14:31:33.462Z,7.66
2017-11-20T14:32:39.067Z,7.64
2017-11-20T14:33:45.539Z,7.67
2017-11-20T14:34:50.582Z,7.59
2017-11-20T14:35:55.663Z,7.60
2017-11-20T14:37:00.793Z,7.61
2017-11-20T14:38:05.861Z,7.61
2017-11-20T14:39:10.933Z,7.66
2017-11-20T14:40:16.079Z,7.55
2017-11-20T14:41:21.144Z,7.60
2017-11-20T14:42:26.250Z,7.59
2017-11-20T14:43:31.062Z,7.70
2017-11-20T14:44:36.177Z,7.72
2017-11-20T14:45:41.306Z,7.50
2017-11-20T14:46:46.145Z,7.42
2017-11-20T14:48:05.364Z,7.42
2017-11-20T14:49:10.187Z,7.35
2017-11-20T14:50:15.298Z,7.30
2017-11-20T14:51:34.220Z,7.27
2017-11-20T14:52:39.609Z,7.19
2017-11-20T14:53:45.772Z,7.24
2017-11-20T14:54:50.660Z,7.27
2017-11-20T14:55:56.520Z,7.30
2017-11-20T14:57:01.333Z,7.37
2017-11-20T14:58:06.390Z,7.38
2017-11-20T14:59:11.486Z,7.41
2017-11-20T15:00:16.534Z,7.38
2017-11-20T15:01:26.031Z,7.40
2017-11-20T15:02:31.079Z,7.37
2017-11-20T15:03:36.331Z,7.38
2017-11-20T15:04:41.623Z,7.26
2017-11-20T15:05:46.511Z,7.21
2017-11-20T15:06:51.574Z,7.19
2017-11-20T15:07:56.656Z,7.17
2017-11-20T15:09:01.781Z,7.03
2017-11-20T15:10:06.828Z,7.00
2017-11-20T15:11:12.682Z,7.08
2017-11-20T15:12:17.710Z,7.11
2017-11-20T15:13:24.459Z,7.16
2017-11-20T15:14:30.186Z,7.16
2017-11-20T15:15:36.026Z,7.15
2017-11-20T15:16:41.101Z,7.17
2017-11-20T15:17:45.962Z,7.11
2017-11-20T15:18:51.009Z,7.12
2017-11-20T15:19:56.674Z,7.19
2017-11-20T15:21:02.005Z,7.08
2017-11-20T15:22:06.971Z,7.03
2017-11-20T15:23:12.893Z,6.91
2017-11-20T15:24:18.412Z,6.86
2017-11-20T15:25:23.468Z,6.88
2017-11-20T15:26:29.007Z,6.96
2017-11-20T15:27:34.487Z,6.87
2017-11-20T15:28:39.728Z,6.81
2017-11-20T15:29:45.213Z,6.81
2017-11-20T15:30:51.156Z,6.86
2017-11-20T15:31:56.247Z,6.89
2017-11-20T15:33:01.326Z,6.98
2017-11-20T15:34:06.997Z,6.94
2017-11-20T15:35:12.555Z,6.95
2017-11-20T15:36:18.921Z,6.87
2017-11-20T15:37:24.631Z,6.96
2017-11-20T15:38:29.772Z,7.00
2017-11-20T15:39:35.272Z,6.88
2017-11-20T15:40:41.648Z,6.90
2017-11-20T15:41:47.530Z,6.95
2017-11-20T15:42:53.538Z,7.00
2017-11-20T15:43:59.487Z,7.03
2017-11-20T15:45:05.097Z,7.02
2017-11-20T15:46:11.272Z,6.95
2017-11-20T15:47:17.532Z,6.88
2017-11-20T15:48:23.412Z,6.71
2017-11-20T15:49:29.522Z,6.73
2017-11-20T15:50:35.533Z,6.78
2017-11-20T15:51:42.300Z,6.78
2017-11-20T15:52:49.272Z,6.76
2017-11-20T15:53:55.124Z,7.09
2017-11-20T15:55:01.814Z,6.91
2017-11-20T15:56:07.835Z,6.86
2017-11-20T15:57:14.338Z,6.85
2017-11-20T15:58:20.703Z,6.72
2017-11-20T15:59:26.721Z,6.69
2017-11-20T16:00:32.460Z,6.84
2017-11-20T16:01:38.511Z,6.86
2017-11-20T16:02:44.355Z,6.85
2017-11-20T16:03:50.403Z,6.73
2017-11-20T16:04:56.428Z,6.92
2017-11-20T16:06:02.089Z,6.83
2017-11-20T16:07:08.243Z,6.75
2017-11-20T16:08:17.155Z,6.81
2017-11-20T16:09:24.332Z,6.75
2017-11-20T16:10:30.276Z,6.73
2017-11-20T16:11:36.437Z,6.62
2017-11-20T16:12:42.273Z,6.65
2017-11-20T16:13:48.370Z,6.69
2017-11-20T16:14:54.572Z,6.62
2017-11-20T16:16:01.288Z,6.69
2017-11-20T16:17:09.094Z,6.75
2017-11-20T16:18:15.715Z,6.69
2017-11-20T16:19:22.650Z,6.55
2017-11-20T16:20:29.449Z,6.40
2017-11-20T16:21:35.578Z,6.34
2017-11-20T16:22:41.823Z,6.28
2017-11-20T16:23:48.094Z,6.32
2017-11-20T16:24:54.280Z,6.38
2017-11-20T16:26:01.097Z,6.43
2017-11-20T16:27:09.048Z,6.57
2017-11-20T16:28:15.855Z,6.65
2017-11-20T16:29:24.256Z,6.54
2017-11-20T16:30:31.030Z,6.49
2017-11-20T16:31:37.173Z,6.33
2017-11-20T16:32:44.726Z,6.40
2017-11-20T16:33:53.499Z,6.41
2017-11-20T16:35:00.338Z,6.34
2017-11-20T16:36:06.384Z,6.36
2017-11-20T16:37:12.585Z,6.29
2017-11-20T16:38:19.455Z,6.31
2017-11-20T16:39:26.301Z,6.33
2017-11-20T16:40:32.023Z,6.32
2017-11-20T16:41:39.083Z,6.21
2017-11-20T16:42:45.232Z,6.26
2017-11-20T16:43:51.386Z,6.31
2017-11-20T16:44:57.537Z,6.36
2017-11-20T16:46:03.278Z,6.41
2017-11-20T16:47:09.122Z,6.45
2017-11-20T16:48:15.169Z,6.36
2017-11-20T16:49:21.352Z,6.40
2017-11-20T16:50:28.219Z,6.42
2017-11-20T16:51:34.439Z,6.45
2017-11-20T16:52:40.595Z,6.40
2017-11-20T16:53:46.772Z,6.26
2017-11-20T16:54:52.895Z,6.22
2017-11-20T16:55:58.941Z,6.22
2017-11-20T16:57:21.781Z,6.20
2017-11-20T16:58:44.653Z,6.14
2017-11-20T16:59:51.001Z,6.15
2017-11-20T17:00:57.625Z,6.20
2017-11-20T17:03:48.600Z,6.06
2017-11-20T17:04:56.391Z,6.17
2017-11-20T17:06:03.647Z,6.25
2017-11-20T17:07:11.404Z,6.23
2017-11-20T17:08:19.297Z,6.23
2017-11-20T17:09:26.277Z,6.21
2017-11-20T17:10:33.711Z,6.24
2017-11-20T17:11:40.794Z,6.24
2017-11-20T17:12:46.769Z,6.48
2017-11-20T17:13:53.024Z,6.40
2017-11-20T17:14:59.074Z,6.30
2017-11-20T17:16:05.555Z,6.29
2017-11-20T17:17:11.788Z,6.36
2017-11-20T17:18:17.968Z,6.47
2017-11-20T17:19:25.010Z,6.45
2017-11-20T17:20:31.879Z,6.46
2017-11-20T17:21:38.185Z,6.38
2017-11-20T17:22:47.964Z,6.32
2017-11-20T17:23:55.363Z,6.33
2017-11-20T17:25:01.499Z,6.27
2017-11-20T17:26:08.469Z,6.18
2017-11-20T17:27:17.102Z,6.16
2017-11-20T17:28:24.503Z,6.15
2017-11-20T17:29:32.854Z,6.12
2017-11-20T17:30:39.599Z,6.03
2017-11-20T17:31:45.882Z,6.00
2017-11-20T17:32:52.403Z,6.00
2017-11-20T17:34:02.070Z,6.06
2017-11-20T17:35:11.305Z,6.08
2017-11-20T17:36:17.227Z,5.99
2017-11-20T17:37:23.579Z,5.98
2017-11-20T17:38:29.619Z,6.01
2017-11-20T17:39:35.739Z,6.08
2017-11-20T17:40:42.811Z,6.06
2017-11-20T17:41:49.824Z,6.06
2017-11-20T17:42:56.487Z,6.08
2017-11-20T17:44:03.067Z,6.11
2017-11-20T17:45:09.249Z,6.12
2017-11-20T17:46:16.113Z,6.17
2017-11-20T17:47:22.262Z,6.16
2017-11-20T17:48:30.883Z,6.21
2017-11-20T17:49:37.817Z,6.24
2017-11-20T17:50:43.888Z,6.17
2017-11-20T17:51:50.916Z,6.06
2017-11-20T17:52:57.181Z,6.09
2017-11-20T17:54:02.922Z,6.05
2017-11-20T17:55:09.391Z,6.04
2017-11-20T17:56:15.518Z,5.97
2017-11-20T17:57:23.002Z,5.90
2017-11-20T17:58:29.049Z,5.90
2017-11-20T17:59:36.428Z,5.83
2017-11-20T18:00:43.500Z,5.92
2017-11-20T18:01:49.445Z,6.01
2017-11-20T18:02:56.415Z,5.97
2017-11-20T18:04:02.340Z,5.98
2017-11-20T18:05:08.524Z,5.98
2017-11-20T18:06:16.194Z,5.91
2017-11-20T18:07:22.451Z,5.94
2017-11-20T18:08:31.334Z,5.99
2017-11-20T18:09:39.462Z,6.03
2017-11-20T18:10:45.576Z,5.96
2017-11-20T18:11:52.383Z,6.04
2017-11-20T18:12:58.325Z,5.89
2017-11-20T18:14:05.211Z,5.87
2017-11-20T18:15:11.386Z,5.90
2017-11-20T18:16:19.850Z,5.93
2017-11-20T18:17:27.903Z,6.00
2017-11-20T18:18:35.222Z,5.98
2017-11-20T18:19:42.102Z,5.96
2017-11-20T18:20:48.394Z,5.99
2017-11-20T18:21:54.905Z,6.01
2017-11-20T18:23:01.944Z,6.08
2017-11-20T18:24:08.852Z,6.18
2017-11-20T18:25:16.323Z,6.04
2017-11-20T18:26:25.760Z,6.04
2017-11-20T18:27:32.337Z,6.11
2017-11-20T18:28:38.486Z,6.13
2017-11-20T18:29:45.639Z,6.07
2017-11-20T18:30:51.892Z,6.11
2017-11-20T18:31:58.099Z,6.16
2017-11-20T18:33:06.460Z,6.16
2017-11-20T18:34:12.504Z,6.08
2017-11-20T18:35:19.398Z,6.13
2017-11-20T18:36:27.577Z,6.16
2017-11-20T18:37:33.781Z,6.23
2017-11-20T18:38:41.192Z,6.33
2017-11-20T18:39:47.548Z,6.40
2017-11-20T18:40:54.228Z,6.41
2017-11-20T18:42:01.189Z,6.32
2017-11-20T18:43:07.445Z,6.22
2017-11-20T18:44:15.335Z,6.19
2017-11-20T18:45:21.475Z,6.11
2017-11-20T18:46:28.445Z,6.03
2017-11-20T18:47:34.344Z,6.12
2017-11-20T18:48:41.166Z,6.23
2017-11-20T18:49:47.012Z,6.19
2017-11-20T18:50:53.595Z,6.22
2017-11-20T18:52:01.767Z,6.27
2017-11-20T18:53:07.873Z,6.22
2017-11-20T18:54:16.315Z,6.25
2017-11-20T18:55:22.260Z,6.30
2017-11-20T18:56:29.239Z,6.36
2017-11-20T18:57:35.481Z,6.45
2017-11-20T18:58:41.637Z,6.42
2017-11-20T18:59:47.423Z,6.39
2017-11-20T19:01:10.317Z,6.31
2017-11-20T19:02:34.298Z,6.24
2017-11-20T19:05:46.184Z,6.16
2017-11-20T19:07:09.333Z,6.14
2017-11-20T19:08:32.278Z,6.14
2017-11-20T19:09:38.559Z,6.11
2017-11-20T19:10:44.580Z,6.23
2017-11-20T19:11:50.600Z,6.31
2017-11-20T19:12:57.596Z,6.37
2017-11-20T19:14:04.415Z,6.40
2017-11-20T19:15:12.264Z,6.29
2017-11-20T19:16:18.403Z,6.24
2017-11-20T19:17:25.988Z,6.29
2017-11-20T19:18:32.267Z,6.23
2017-11-20T19:19:39.638Z,6.09
2017-11-20T19:20:45.788Z,6.12
2017-11-20T19:21:52.030Z,6.16
2017-11-20T19:23:01.552Z,6.13
2017-11-20T19:24:08.386Z,6.25
2017-11-20T19:25:16.027Z,6.19
2017-11-20T19:26:23.080Z,6.18
2017-11-20T19:27:30.742Z,6.21
2017-11-20T19:28:37.666Z,6.12
2017-11-20T19:29:43.680Z,6.18
2017-11-20T19:30:49.781Z,6.26
2017-11-20T19:31:56.514Z,6.27
2017-11-20T19:33:03.471Z,6.31
2017-11-20T19:34:10.025Z,6.33
2017-11-20T19:35:17.074Z,6.35
2017-11-20T19:36:24.745Z,6.35
2017-11-20T19:37:33.041Z,6.36
2017-11-20T19:38:40.380Z,6.31
2017-11-20T19:39:48.121Z,6.28
2017-11-20T19:40:54.768Z,6.31
2017-11-20T19:42:02.626Z,6.34
2017-11-20T19:43:11.454Z,6.35
2017-11-20T19:44:18.833Z,6.27
2017-11-20T19:45:24.967Z,6.29
2017-11-20T19:46:30.994Z,6.30
2017-11-20T19:47:37.451Z,6.38
2017-11-20T19:48:43.420Z,6.39
2017-11-20T19:49:49.546Z,6.33
2017-11-20T19:50:57.451Z,6.29
2017-11-20T19:52:04.976Z,6.23
2017-11-20T19:53:11.588Z,6.30
2017-11-20T19:54:17.730Z,6.38
2017-11-20T19:55:25.625Z,6.43
2017-11-20T19:56:33.367Z,6.38
2017-11-20T19:57:40.606Z,6.35
2017-11-20T19:58:47.665Z,6.34
2017-11-20T19:59:55.005Z,6.41
2017-11-20T20:01:01.827Z,6.33
2017-11-20T20:02:08.946Z,6.33
2017-11-20T20:03:16.363Z,6.37
2017-11-20T20:04:24.672Z,6.33
2017-11-20T20:05:31.663Z,6.45
2017-11-20T20:06:40.775Z,6.53
2017-11-20T20:07:48.937Z,6.54
2017-11-20T20:08:55.828Z,6.47
2017-11-20T20:10:03.299Z,6.45
2017-11-20T20:11:11.515Z,6.44
2017-11-20T20:12:17.579Z,6.46
2017-11-20T20:13:40.969Z,6.51
2017-11-20T20:15:03.953Z,6.43
2017-11-20T20:17:55.516Z,6.21
2017-11-20T20:19:02.764Z,6.27
2017-11-20T20:20:09.837Z,6.24
2017-11-20T20:21:16.057Z,6.22
2017-11-20T20:22:23.160Z,6.20
2017-11-20T20:23:29.616Z,6.16
2017-11-20T20:24:38.267Z,6.14
2017-11-20T20:25:44.473Z,6.15
2017-11-20T20:26:51.343Z,6.16
2017-11-20T20:27:58.214Z,6.17
2017-11-20T20:29:06.282Z,6.10
2017-11-20T20:30:14.184Z,6.10
2017-11-20T20:31:21.321Z,5.96
2017-11-20T20:32:30.071Z,5.91
2017-11-20T20:33:39.239Z,5.87
2017-11-20T20:34:46.903Z,5.89
2017-11-20T20:35:54.154Z,5.96
2017-11-20T20:37:00.277Z,5.92
2017-11-20T20:38:06.562Z,5.87
2017-11-20T20:39:12.813Z,5.87
2017-11-20T20:40:19.696Z,5.88
2017-11-20T20:41:26.248Z,5.93
2017-11-20T20:42:33.106Z,5.76
2017-11-20T20:43:39.359Z,5.64
2017-11-20T20:44:48.685Z,5.67
2017-11-20T20:45:56.277Z,5.61
2017-11-20T20:47:07.855Z,5.65
2017-11-20T20:48:15.123Z,5.61
2017-11-20T20:49:21.653Z,5.61
2017-11-20T20:50:30.602Z,5.59
2017-11-20T20:51:38.448Z,5.68
2017-11-20T20:52:46.709Z,5.52
2017-11-20T20:53:53.672Z,5.44
2017-11-20T20:55:03.813Z,5.42
2017-11-20T20:56:10.996Z,5.40
2017-11-20T20:57:18.183Z,5.54
2017-11-20T20:58:26.050Z,5.56
2017-11-20T20:59:32.340Z,5.51
2017-11-20T21:00:39.336Z,5.55
2017-11-20T21:01:47.159Z,5.58
2017-11-20T21:02:54.034Z,5.63
2017-11-20T21:04:00.179Z,5.63
2017-11-20T21:05:10.667Z,5.59
2017-11-20T21:06:18.322Z,5.59
2017-11-20T21:07:24.952Z,5.58
2017-11-20T21:08:31.508Z,5.61
2017-11-20T21:09:43.751Z,5.63
2017-11-20T21:10:55.692Z,5.63
2017-11-20T21:12:07.574Z,5.61
2017-11-20T21:13:15.970Z,5.55
2017-11-20T21:14:25.261Z,5.47
2017-11-20T21:15:31.617Z,5.42
2017-11-20T21:16:38.249Z,5.45
2017-11-20T21:17:45.348Z,5.48
2017-11-20T21:18:52.416Z,5.44
2017-11-20T21:19:58.561Z,5.47
2017-11-20T21:21:07.765Z,5.49
2017-11-20T21:22:15.608Z,5.41
2017-11-20T21:23:23.934Z,5.42
2017-11-20T21:24:30.108Z,5.43
2017-11-20T21:25:36.770Z,5.44
2017-11-20T21:26:44.731Z,5.50
2017-11-20T21:27:51.435Z,5.52
2017-11-20T21:28:58.610Z,5.54
2017-11-20T21:30:06.596Z,5.64
2017-11-20T21:31:12.700Z,5.68
2017-11-20T21:32:19.572Z,5.69
2017-11-20T21:33:26.483Z,5.74
2017-11-20T21:34:32.631Z,5.70
2017-11-20T21:35:41.734Z,5.66
2017-11-20T21:36:48.113Z,5.69
2017-11-20T21:37:55.124Z,5.63
2017-11-20T21:39:02.827Z,5.74
2017-11-20T21:40:09.750Z,5.82
2017-11-20T21:41:15.968Z,5.91
2017-11-20T21:42:23.731Z,5.86
2017-11-20T21:43:30.444Z,5.82
2017-11-20T21:44:37.751Z,5.74
2017-11-20T21:45:43.970Z,5.59
2017-11-20T21:46:50.117Z,5.64
2017-11-20T21:47:56.236Z,5.65
2017-11-20T21:49:03.061Z,5.62
2017-11-20T21:50:09.091Z,5.55
2017-11-20T21:51:16.136Z,5.67
2017-11-20T21:52:23.136Z,5.81
2017-11-20T21:53:29.342Z,5.77
2017-11-20T21:54:37.339Z,5.78
2017-11-20T21:55:44.144Z,5.79
2017-11-20T21:56:50.497Z,5.84
2017-11-20T21:57:57.603Z,5.97
2017-11-20T21:59:03.841Z,6.03
2017-11-20T22:00:10.220Z,6.07
2017-11-20T22:01:17.490Z,6.05
2017-11-20T22:02:24.934Z,6.00
2017-11-20T22:03:31.956Z,6.02
2017-11-20T22:04:38.128Z,6.03
2017-11-20T22:05:46.462Z,6.01
2017-11-20T22:06:54.041Z,5.81
2017-11-20T22:08:00.098Z,5.78
2017-11-20T22:09:06.073Z,5.73
2017-11-20T22:10:12.087Z,5.77
2017-11-20T22:11:18.304Z,5.77
2017-11-20T22:12:41.824Z,5.84
2017-11-20T22:13:49.871Z,5.77
2017-11-20T22:14:56.245Z,5.77
2017-11-20T22:16:02.696Z,5.72
2017-11-20T22:17:08.708Z,5.75
2017-11-20T22:18:15.623Z,5.75
2017-11-20T22:19:21.624Z,5.85
2017-11-20T22:20:28.974Z,5.85
2017-11-20T22:21:35.104Z,5.83
2017-11-20T22:22:42.766Z,5.82
2017-11-20T22:23:52.057Z,5.87
2017-11-20T22:24:58.983Z,5.82
2017-11-20T22:26:05.133Z,5.86
2017-11-20T22:27:11.678Z,5.92
2017-11-20T22:28:17.795Z,5.97
2017-11-20T22:29:23.839Z,5.94
2017-11-20T22:30:29.186Z,6.04
2017-11-20T22:31:36.824Z,6.06
2017-11-20T22:32:42.892Z,5.97
2017-11-20T22:33:50.176Z,6.01
2017-11-20T22:34:56.187Z,6.09
2017-11-20T22:36:02.296Z,6.07
2017-11-20T22:37:08.485Z,6.02
2017-11-20T22:38:15.149Z,5.99
2017-11-20T22:39:21.910Z,6.04
2017-11-20T22:40:28.072Z,5.98
2017-11-20T22:41:35.147Z,6.02
2017-11-20T22:42:42.639Z,5.97
2017-11-20T22:43:48.314Z,6.03
2017-11-20T22:44:54.184Z,6.07
2017-11-20T22:46:00.969Z,6.05
2017-11-20T22:47:06.924Z,6.09
2017-11-20T22:48:12.806Z,6.14
2017-11-20T22:49:19.104Z,6.18
2017-11-20T22:50:25.935Z,6.14
2017-11-20T22:51:31.956Z,6.19
2017-11-20T22:52:37.999Z,6.07
2017-11-20T22:53:44.939Z,6.13
2017-11-20T22:54:50.866Z,6.18
2017-11-20T22:55:57.509Z,6.17
2017-11-20T22:57:03.366Z,6.14
2017-11-20T22:58:09.253Z,6.05
2017-11-20T22:59:15.302Z,6.03
2017-11-20T23:00:21.358Z,6.10
2017-11-20T23:01:27.152Z,6.04
2017-11-20T23:02:34.038Z,6.01
2017-11-20T23:03:40.566Z,6.05
2017-11-20T23:04:46.118Z,6.05
2017-11-20T23:05:51.897Z,6.09
2017-11-20T23:06:57.694Z,6.04
2017-11-20T23:08:03.657Z,5.98
2017-11-20T23:09:10.649Z,6.05
2017-11-20T23:10:16.804Z,6.16
2017-11-20T23:11:22.209Z,6.20
2017-11-20T23:12:27.605Z,6.18
2017-11-20T23:13:32.646Z,6.22
2017-11-20T23:14:37.686Z,6.18
2017-11-20T23:15:42.720Z,6.21
2017-11-20T23:16:49.192Z,6.29
2017-11-20T23:17:55.837Z,6.31
2017-11-20T23:19:02.338Z,6.25
2017-11-20T23:20:08.059Z,6.19
2017-11-20T23:21:14.190Z,6.25
2017-11-20T23:22:19.891Z,6.16
2017-11-20T23:23:25.608Z,6.17
2017-11-20T23:24:31.306Z,6.15
2017-11-20T23:25:37.014Z,6.10
2017-11-20T23:26:42.719Z,6.14
2017-11-20T23:27:48.091Z,6.13
2017-11-20T23:28:53.811Z,6.17
2017-11-20T23:29:59.509Z,6.18
2017-11-20T23:31:05.221Z,6.24
2017-11-20T23:32:10.987Z,6.27
2017-11-20T23:33:17.463Z,6.26
2017-11-20T23:34:23.950Z,6.24
2017-11-20T23:35:29.645Z,6.25
2017-11-20T23:36:36.150Z,6.28
2017-11-20T23:37:41.853Z,6.27
2017-11-20T23:38:48.319Z,6.30
2017-11-20T23:39:54.805Z,6.34
2017-11-20T23:41:00.500Z,6.38
2017-11-20T23:42:07.702Z,6.42
2017-11-20T23:43:13.403Z,6.44
2017-11-20T23:44:19.102Z,6.47
2017-11-20T23:45:24.826Z,6.47
2017-11-20T23:46:30.517Z,6.51
2017-11-20T23:47:36.209Z,6.49
2017-11-20T23:48:41.909Z,6.54
2017-11-20T23:49:47.397Z,6.56
2017-11-20T23:50:53.121Z,6.57
2017-11-20T23:51:58.810Z,6.53
2017-11-20T23:53:04.506Z,6.54
2017-11-20T23:54:09.315Z,6.54
2017-11-20T23:55:15.035Z,6.48
2017-11-20T23:56:20.746Z,6.35
2017-11-20T23:57:26.436Z,6.40
2017-11-20T23:58:32.131Z,6.34
2017-11-20T23:59:37.829Z,6.25
